Time;durP1;ratioP1;P1;durP2;ratioP2;P2;SDS_P1;SDS_P2;PMS_P1;PMS_P2;Temp;Humidity;BMP_temperature;BMP_pressure;BME280_temperature;BME280_humidity;BME280_pressure;Samples;Min_cycle;Max_cycle;Signal;HPM_P1;HPM_P2
2022/04/07 00:00:04;;;;;;;0.60;0.60;;;9.90;1.00;;;;;;5050141;28;20207;-72
2022/04/07 00:02:30;;;;;;;0.63;0.63;;;9.90;2.30;;;;;;5051397;28;20191;-72
2022/04/07 00:04:56;;;;;;;0.70;0.70;;;9.80;1.00;;;;;;5052031;28;20175;-73
2022/04/07 00:07:21;;;;;;;0.70;0.70;;;9.80;72.70;;;;;;5051817;28;20202;-72
2022/04/07 00:09:47;;;;;;;0.70;0.70;;;9.70;99.90;;;;;;5050181;28;20175;-74
2022/04/07 00:12:12;;;;;;;0.70;0.70;;;9.70;99.90;;;;;;5051629;28;20602;-72
2022/04/07 00:14:38;;;;;;;0.80;0.80;;;9.60;99.90;;;;;;5051715;28;20266;-72
2022/04/07 00:17:04;;;;;;;0.77;0.77;;;9.70;99.90;;;;;;5051447;28;20304;-73
2022/04/07 00:19:29;;;;;;;0.73;0.73;;;9.60;99.90;;;;;;5051152;28;20671;-71
2022/04/07 00:21:57;;;;;;;0.60;0.60;;;9.60;99.90;;;;;;5050298;28;20210;-71
2022/04/07 00:24:23;;;;;;;0.70;0.70;;;9.60;99.90;;;;;;5051841;28;20182;-72
2022/04/07 00:26:49;;;;;;;0.70;0.70;;;9.50;99.90;;;;;;5051731;28;20187;-72
2022/04/07 00:29:14;;;;;;;0.70;0.70;;;9.50;99.90;;;;;;5051172;28;20191;-72
2022/04/07 00:31:40;;;;;;;0.70;0.70;;;9.50;99.90;;;;;;5055982;28;20578;-72
2022/04/07 00:34:09;;;;;;;0.60;0.60;;;9.40;99.90;;;;;;5051914;28;20551;-73
2022/04/07 00:36:35;;;;;;;0.70;0.70;;;9.40;99.90;;;;;;5051209;28;20305;-74
2022/04/07 00:39:01;;;;;;;0.70;0.70;;;9.40;99.90;;;;;;5050917;28;20254;-72
2022/04/07 00:41:26;;;;;;;0.67;0.67;;;9.30;99.90;;;;;;5050121;28;20285;-72
2022/04/07 00:46:29;;;;;;;0.67;0.67;;;9.20;99.90;;;;;;5065817;28;20272;-75
2022/04/07 00:48:55;;;;;;;0.70;0.70;;;9.20;99.90;;;;;;5054024;28;20588;-75
2022/04/07 00:51:20;;;;;;;0.67;0.67;;;9.00;99.90;;;;;;5037076;28;20274;-75
2022/04/07 00:53:46;;;;;;;0.50;0.50;;;8.90;99.90;;;;;;5032104;28;20628;-76
2022/04/07 00:56:12;;;;;;;0.70;0.70;;;8.90;99.90;;;;;;5031812;28;20246;-76
2022/04/07 00:58:38;;;;;;;0.70;0.70;;;8.90;99.90;;;;;;5031446;28;20643;-76
2022/04/07 01:01:04;;;;;;;0.70;0.70;;;9.00;99.90;;;;;;5029751;28;20573;-75
2022/04/07 01:03:30;;;;;;;0.63;0.63;;;9.00;99.90;;;;;;5031275;28;20197;-74
2022/04/07 01:05:56;;;;;;;0.60;0.60;;;8.90;99.90;;;;;;5031372;28;20190;-74
2022/04/07 01:08:22;;;;;;;0.70;0.70;;;8.90;99.90;;;;;;5031047;28;20556;-74
2022/04/07 01:10:47;;;;;;;0.70;0.70;;;8.90;99.90;;;;;;5029635;28;20195;-75
2022/04/07 01:13:14;;;;;;;0.70;0.70;;;8.90;99.90;;;;;;5030995;28;20251;-75
2022/04/07 01:15:40;;;;;;;0.60;0.60;;;9.00;99.90;;;;;;5030832;28;20306;-75
2022/04/07 01:18:06;;;;;;;0.60;0.60;;;8.90;99.90;;;;;;5031157;28;20259;-75
2022/04/07 01:20:32;;;;;;;0.70;0.70;;;8.90;99.90;;;;;;5035433;28;20195;-75
2022/04/07 01:22:58;;;;;;;0.60;0.60;;;8.90;99.90;;;;;;5050912;28;20225;-75
2022/04/07 01:25:25;;;;;;;0.80;0.80;;;8.90;99.90;;;;;;5050873;28;20175;-75
2022/04/07 01:27:52;;;;;;;0.60;0.60;;;8.90;99.90;;;;;;5051046;28;20578;-75
2022/04/07 01:30:18;;;;;;;0.70;0.70;;;8.80;99.90;;;;;;5043793;28;20195;-75
2022/04/07 01:32:47;;;;;;;0.67;0.67;;;8.80;99.90;;;;;;5032737;28;20198;-76
2022/04/07 01:35:13;;;;;;;0.60;0.60;;;8.90;99.90;;;;;;5035024;28;20172;-75
2022/04/07 01:37:42;;;;;;;0.60;0.60;;;8.90;99.90;;;;;;5034917;28;20266;-75
2022/04/07 01:40:10;;;;;;;0.70;0.70;;;8.90;99.90;;;;;;5033473;28;20574;-75
2022/04/07 01:42:37;;;;;;;0.80;0.80;;;8.90;99.90;;;;;;5034697;28;20275;-75
2022/04/07 01:45:05;;;;;;;0.80;0.80;;;8.90;99.90;;;;;;5034947;28;20231;-75
2022/04/07 01:47:33;;;;;;;0.70;0.70;;;8.90;99.90;;;;;;5034620;28;20271;-75
2022/04/07 01:50:06;;;;;;;0.80;0.80;;;8.90;99.90;;;;;;5032990;28;20199;-75
2022/04/07 01:52:35;;;;;;;0.70;0.70;;;8.80;99.90;;;;;;5034416;28;20610;-74
2022/04/07 01:55:01;;;;;;;0.60;0.60;;;8.90;99.90;;;;;;5034591;28;20259;-75
2022/04/07 01:57:27;;;;;;;0.70;0.70;;;8.80;99.90;;;;;;5034864;28;20322;-75
2022/04/07 01:59:53;;;;;;;0.80;0.80;;;8.70;99.90;;;;;;5033075;28;20196;-75
2022/04/07 02:02:21;;;;;;;0.70;0.70;;;8.80;99.90;;;;;;5034498;28;20179;-75
2022/04/07 02:05:00;;;;;;;0.70;0.70;;;8.90;99.90;;;;;;5035127;28;20188;-75
2022/04/07 02:07:32;;;;;;;0.70;0.70;;;8.90;99.90;;;;;;5034543;28;20210;-75
2022/04/07 02:10:03;;;;;;;0.80;0.80;;;9.00;99.90;;;;;;5032996;28;20283;-76
2022/04/07 02:12:29;;;;;;;0.70;0.70;;;9.00;99.90;;;;;;5034150;28;20649;-75
2022/04/07 02:14:56;;;;;;;0.70;0.70;;;9.00;99.90;;;;;;5034599;28;20183;-76
2022/04/07 02:17:22;;;;;;;0.80;0.80;;;9.00;99.90;;;;;;5034396;28;20215;-75
2022/04/07 02:19:53;;;;;;;0.83;0.83;;;9.00;99.90;;;;;;5032641;28;20180;-75
2022/04/07 02:22:19;;;;;;;0.70;0.70;;;9.00;99.90;;;;;;5033799;28;20175;-75
2022/04/07 02:24:45;;;;;;;0.70;0.70;;;9.00;99.90;;;;;;5033885;28;20180;-75
2022/04/07 02:27:10;;;;;;;0.67;0.67;;;8.90;99.90;;;;;;5033795;28;20668;-75
2022/04/07 02:29:36;;;;;;;0.70;0.70;;;8.90;99.90;;;;;;5033341;28;20164;-75
2022/04/07 02:32:04;;;;;;;0.70;0.70;;;8.90;99.90;;;;;;5032930;28;20194;-75
2022/04/07 02:34:29;;;;;;;0.80;0.80;;;8.90;99.90;;;;;;5033629;28;20183;-75
2022/04/07 02:36:55;;;;;;;0.70;0.70;;;8.90;99.90;;;;;;5033643;28;20212;-75
2022/04/07 02:39:21;;;;;;;0.70;0.70;;;8.90;99.90;;;;;;5033568;28;20180;-75
2022/04/07 02:41:46;;;;;;;0.70;0.70;;;9.00;99.90;;;;;;5049025;28;20625;-75
2022/04/07 02:44:12;;;;;;;0.70;0.70;;;9.00;99.90;;;;;;5052166;28;20171;-75
2022/04/07 02:46:38;;;;;;;0.80;0.80;;;9.10;99.90;;;;;;5053490;28;20175;-75
2022/04/07 02:49:04;;;;;;;0.80;0.80;;;9.00;95.80;;;;;;5052787;28;20643;-74
2022/04/07 02:51:31;;;;;;;0.73;0.73;;;9.10;1.00;;;;;;5052298;28;20642;-75
2022/04/07 02:53:58;;;;;;;0.63;0.63;;;9.20;1.00;;;;;;5053466;28;20262;-75
2022/04/07 02:56:27;;;;;;;0.80;0.80;;;9.20;1.00;;;;;;5053352;28;20307;-75
2022/04/07 02:58:55;;;;;;;0.80;0.80;;;9.20;1.00;;;;;;5052611;28;20215;-76
2022/04/07 03:01:20;;;;;;;0.77;0.77;;;9.10;1.00;;;;;;5037805;28;20594;-74
2022/04/07 03:03:46;;;;;;;0.80;0.80;;;9.10;1.00;;;;;;5032947;28;20187;-76
2022/04/07 03:06:12;;;;;;;0.80;0.80;;;9.10;1.00;;;;;;5033237;28;20175;-75
2022/04/07 03:08:38;;;;;;;0.80;0.80;;;9.20;1.00;;;;;;5033167;28;20180;-74
2022/04/07 03:11:06;;;;;;;0.80;0.80;;;9.20;1.00;;;;;;5031558;28;20294;-75
2022/04/07 03:13:32;;;;;;;0.70;0.70;;;9.20;1.00;;;;;;5032893;28;20206;-74
2022/04/07 03:15:58;;;;;;;0.70;0.70;;;9.20;1.00;;;;;;5032910;28;20818;-75
2022/04/07 03:18:23;;;;;;;0.70;0.70;;;9.20;1.00;;;;;;5032881;28;20168;-76
2022/04/07 03:20:49;;;;;;;0.80;0.80;;;9.10;1.00;;;;;;5031517;28;20649;-75
2022/04/07 03:23:15;;;;;;;0.70;0.70;;;9.10;1.00;;;;;;5033172;28;20172;-75
2022/04/07 03:25:41;;;;;;;0.70;0.70;;;9.10;1.00;;;;;;5033128;28;20373;-75
2022/04/07 03:28:06;;;;;;;0.73;0.73;;;9.10;1.00;;;;;;5032850;28;20191;-75
2022/04/07 03:30:32;;;;;;;0.80;0.80;;;9.20;1.00;;;;;;5037359;28;20577;-75
2022/04/07 03:32:58;;;;;;;0.70;0.70;;;9.20;1.00;;;;;;5052405;28;20179;-74
2022/04/07 03:35:25;;;;;;;0.80;0.80;;;9.10;1.00;;;;;;5052710;28;20207;-74
2022/04/07 03:37:51;;;;;;;0.70;0.70;;;9.20;1.00;;;;;;5052626;28;20179;-75
2022/04/07 03:40:16;;;;;;;0.80;0.80;;;9.20;1.00;;;;;;5045621;28;20284;-75
2022/04/07 03:42:43;;;;;;;0.80;0.80;;;9.20;1.00;;;;;;5032373;28;20260;-74
2022/04/07 03:45:08;;;;;;;0.80;0.80;;;9.20;1.00;;;;;;5035677;28;20190;-74
2022/04/07 03:47:34;;;;;;;0.70;0.70;;;9.20;1.00;;;;;;5047388;28;20183;-75
2022/04/07 03:50:00;;;;;;;0.80;0.80;;;9.10;1.00;;;;;;5046027;28;20234;-75
2022/04/07 03:52:25;;;;;;;0.70;0.70;;;9.20;1.00;;;;;;5040385;28;20175;-75
2022/04/07 03:54:52;;;;;;;0.70;0.70;;;9.20;1.00;;;;;;5044100;28;20621;-74
2022/04/07 03:57:18;;;;;;;0.70;0.70;;;9.20;1.00;;;;;;5047087;28;20210;-75
2022/04/07 03:59:44;;;;;;;0.80;0.80;;;9.10;1.00;;;;;;5049649;28;20174;-75
2022/04/07 04:02:10;;;;;;;0.60;0.60;;;9.10;1.00;;;;;;5047953;28;20554;-75
2022/04/07 04:04:36;;;;;;;0.80;0.80;;;9.10;1.00;;;;;;5032587;28;20243;-75
2022/04/07 04:07:02;;;;;;;0.70;0.70;;;9.10;1.00;;;;;;5032459;28;20233;-74
2022/04/07 04:09:28;;;;;;;0.80;0.80;;;9.00;1.00;;;;;;5031913;28;20176;-75
2022/04/07 04:11:54;;;;;;;0.70;0.70;;;9.00;1.00;;;;;;5039075;28;20256;-75
2022/04/07 04:14:19;;;;;;;0.70;0.70;;;8.90;1.00;;;;;;5043783;28;20317;-74
2022/04/07 04:16:45;;;;;;;0.70;0.70;;;8.90;1.00;;;;;;5051890;28;20752;-75
2022/04/07 04:19:11;;;;;;;0.70;0.70;;;8.80;1.00;;;;;;5051429;28;20182;-75
2022/04/07 04:21:37;;;;;;;0.60;0.60;;;8.70;1.00;;;;;;5034906;28;20195;-74
2022/04/07 04:24:03;;;;;;;0.70;0.70;;;8.80;1.00;;;;;;5031981;28;20618;-75
2022/04/07 04:26:28;;;;;;;0.67;0.67;;;8.80;1.00;;;;;;5032123;28;20200;-75
2022/04/07 04:28:54;;;;;;;0.80;0.80;;;8.70;1.00;;;;;;5031363;28;20265;-75
2022/04/07 04:31:24;;;;;;;0.70;0.70;;;8.70;1.00;;;;;;5044383;28;20599;-74
2022/04/07 04:33:54;;;;;;;0.80;0.80;;;8.60;1.00;;;;;;5051558;28;20669;-75
2022/04/07 04:36:20;;;;;;;0.70;0.70;;;8.60;1.00;;;;;;5042060;28;20216;-76
2022/04/07 04:38:46;;;;;;;0.70;0.70;;;8.60;1.00;;;;;;5039678;28;20172;-75
2022/04/07 04:41:11;;;;;;;0.60;0.60;;;8.60;1.00;;;;;;5042506;28;20218;-75
2022/04/07 04:43:37;;;;;;;0.70;0.70;;;8.60;1.00;;;;;;5051559;28;20248;-74
2022/04/07 04:46:03;;;;;;;0.70;0.70;;;8.60;1.00;;;;;;5051456;28;20575;-74
2022/04/07 04:48:28;;;;;;;0.70;0.70;;;8.60;1.00;;;;;;5052212;28;20650;-75
2022/04/07 04:50:57;;;;;;;0.70;0.70;;;8.60;1.00;;;;;;5049088;28;20291;-75
2022/04/07 04:53:24;;;;;;;0.70;0.70;;;8.70;1.00;;;;;;5051483;28;20570;-75
2022/04/07 04:55:49;;;;;;;0.70;0.70;;;8.70;1.00;;;;;;5051282;28;20214;-75
2022/04/07 04:58:15;;;;;;;0.70;0.70;;;8.70;1.00;;;;;;5051438;28;20186;-74
2022/04/07 05:00:41;;;;;;;0.70;0.70;;;8.80;1.00;;;;;;5041769;28;20230;-75
2022/04/07 05:03:06;;;;;;;0.80;0.80;;;8.90;1.00;;;;;;5031708;28;20185;-75
2022/04/07 05:05:32;;;;;;;0.70;0.70;;;9.00;1.00;;;;;;5031711;28;20175;-76
2022/04/07 05:07:58;;;;;;;0.60;0.60;;;9.00;1.00;;;;;;5030908;28;20518;-76
2022/04/07 05:10:24;;;;;;;0.60;0.60;;;9.00;1.00;;;;;;5029619;28;20207;-75
2022/04/07 05:12:51;;;;;;;0.70;0.70;;;9.20;99.90;;;;;;5031192;28;20180;-74
2022/04/07 05:15:16;;;;;;;0.70;0.70;;;9.20;99.90;;;;;;5031066;28;20198;-73
2022/04/07 05:17:50;;;;;;;0.80;0.80;;;9.30;99.90;;;;;;5031341;28;20633;-74
2022/04/07 05:20:16;;;;;;;0.77;0.77;;;9.40;1.00;;;;;;5030276;28;20206;-74
2022/04/07 05:22:42;;;;;;;0.70;0.70;;;9.40;99.90;;;;;;5031216;28;20206;-72
2022/04/07 05:25:08;;;;;;;0.70;0.70;;;9.40;99.90;;;;;;5029904;28;20200;-74
2022/04/07 05:27:36;;;;;;;0.60;0.60;;;9.30;1.00;;;;;;5031139;28;20605;-75
2022/04/07 05:30:13;;;;;;;0.70;0.70;;;9.40;99.90;;;;;;5031105;28;20573;-75
2022/04/07 05:32:39;;;;;;;0.70;0.70;;;9.30;99.90;;;;;;5031490;28;20214;-76
2022/04/07 05:35:05;;;;;;;0.70;0.70;;;9.30;99.90;;;;;;5036875;28;20186;-75
2022/04/07 05:37:30;;;;;;;0.70;0.70;;;9.40;99.90;;;;;;5033789;28;20747;-75
2022/04/07 05:39:56;;;;;;;0.70;0.70;;;9.30;99.90;;;;;;5030624;28;20230;-74
2022/04/07 05:42:22;;;;;;;0.70;0.70;;;9.30;1.00;;;;;;5029704;28;20176;-75
2022/04/07 05:44:47;;;;;;;0.70;0.70;;;9.30;99.90;;;;;;5031160;28;20274;-75
2022/04/07 05:47:13;;;;;;;0.80;0.80;;;9.30;1.00;;;;;;5031602;28;20263;-74
2022/04/07 05:49:39;;;;;;;0.80;0.80;;;9.40;99.90;;;;;;5031345;28;20684;-73
2022/04/07 05:52:04;;;;;;;0.70;0.70;;;9.40;1.00;;;;;;5031461;28;20396;-74
2022/04/07 05:54:33;;;;;;;0.60;0.60;;;9.40;99.90;;;;;;5050163;28;20201;-75
2022/04/07 05:56:59;;;;;;;0.80;0.80;;;9.50;99.90;;;;;;5051392;28;20218;-75
2022/04/07 05:59:24;;;;;;;0.80;0.80;;;9.60;99.90;;;;;;5051194;28;20167;-76
2022/04/07 06:01:50;;;;;;;0.80;0.80;;;9.50;99.90;;;;;;5051493;28;20563;-74
2022/04/07 06:04:16;;;;;;;0.70;0.70;;;9.50;99.90;;;;;;5050659;28;20183;-74
2022/04/07 06:06:42;;;;;;;0.70;0.70;;;9.60;1.00;;;;;;5050261;28;20186;-75
2022/04/07 06:09:07;;;;;;;0.80;0.80;;;9.80;99.90;;;;;;5050441;28;20179;-74
2022/04/07 06:11:33;;;;;;;0.70;0.70;;;10.20;99.90;;;;;;5049189;28;20656;-75
2022/04/07 06:13:58;;;;;;;0.70;0.70;;;10.30;1.00;;;;;;5043244;28;20183;-75
2022/04/07 06:16:24;;;;;;;0.60;0.60;;;10.30;1.00;;;;;;5050492;28;20301;-74
2022/04/07 06:18:51;;;;;;;0.70;0.70;;;10.30;99.90;;;;;;5052035;28;20222;-76
2022/04/07 06:21:17;;;;;;;0.70;0.70;;;10.30;99.90;;;;;;5046597;28;20291;-73
2022/04/07 06:23:42;;;;;;;0.60;0.60;;;10.30;1.00;;;;;;5051876;28;20210;-76
2022/04/07 06:26:08;;;;;;;0.60;0.60;;;10.50;99.90;;;;;;5040751;28;20180;-75
2022/04/07 06:28:33;;;;;;;0.70;0.70;;;10.50;1.00;;;;;;5040438;28;20182;-76
2022/04/07 06:30:59;;;;;;;0.70;0.70;;;10.50;1.00;;;;;;5053528;28;20290;-75
2022/04/07 06:33:24;;;;;;;0.70;0.70;;;10.70;1.00;;;;;;5054181;28;20187;-76
2022/04/07 06:35:51;;;;;;;0.60;0.60;;;10.70;99.90;;;;;;5054251;28;20210;-75
2022/04/07 06:38:17;;;;;;;0.70;0.70;;;10.70;99.90;;;;;;5053216;28;20266;-76
2022/04/07 06:40:43;;;;;;;0.70;0.70;;;10.70;1.00;;;;;;5052854;28;20195;-75
2022/04/07 06:43:08;;;;;;;0.70;0.70;;;10.70;99.90;;;;;;5054034;28;20171;-76
2022/04/07 06:45:34;;;;;;;0.60;0.60;;;10.70;1.00;;;;;;5053271;28;20217;-76
2022/04/07 06:47:59;;;;;;;0.60;0.60;;;10.80;5.70;;;;;;5053955;28;20175;-75
2022/04/07 06:50:26;;;;;;;0.63;0.63;;;10.70;1.00;;;;;;5053095;28;20244;-77
2022/04/07 06:52:52;;;;;;;0.60;0.60;;;10.80;1.00;;;;;;5053479;28;20557;-75
2022/04/07 06:55:18;;;;;;;0.70;0.70;;;10.80;1.00;;;;;;5053283;28;20175;-73
2022/04/07 06:57:51;;;;;;;0.60;0.60;;;10.80;99.90;;;;;;5053420;28;20669;-74
2022/04/07 07:00:18;;;;;;;0.70;0.70;;;10.60;1.00;;;;;;5053008;28;20206;-74
2022/04/07 07:02:45;;;;;;;0.60;0.60;;;10.60;1.00;;;;;;5053308;28;20203;-73
2022/04/07 07:05:10;;;;;;;0.70;0.70;;;10.60;99.90;;;;;;5053286;28;20675;-74
2022/04/07 07:07:36;;;;;;;0.60;0.60;;;10.60;1.00;;;;;;5053166;28;20203;-74
2022/04/07 07:10:02;;;;;;;0.60;0.60;;;10.60;1.00;;;;;;5052644;28;20607;-73
2022/04/07 07:12:27;;;;;;;0.60;0.60;;;10.60;1.00;;;;;;5053349;28;20282;-74
2022/04/07 07:14:53;;;;;;;0.60;0.60;;;10.60;1.00;;;;;;5053212;28;20217;-74
2022/04/07 07:17:18;;;;;;;0.60;0.60;;;10.70;1.00;;;;;;5051910;28;20264;-74
2022/04/07 07:19:44;;;;;;;0.70;0.70;;;10.70;1.00;;;;;;5050478;28;20623;-74
2022/04/07 07:22:09;;;;;;;0.70;0.70;;;10.70;99.90;;;;;;5052987;28;20219;-75
2022/04/07 07:24:35;;;;;;;0.60;0.60;;;10.70;99.90;;;;;;5053220;28;20167;-74
2022/04/07 07:27:00;;;;;;;0.60;0.60;;;11.20;1.00;;;;;;5053348;28;20171;-74
2022/04/07 07:29:26;;;;;;;0.60;0.60;;;11.90;99.90;;;;;;5050929;28;20262;-74
2022/04/07 07:31:51;;;;;;;0.63;0.63;;;11.70;1.00;;;;;;5052399;28;20207;-75
2022/04/07 07:34:17;;;;;;;0.60;0.60;;;11.50;1.00;;;;;;5052849;28;20198;-74
2022/04/07 07:36:42;;;;;;;0.60;0.60;;;11.40;1.00;;;;;;5052565;28;20775;-75
2022/04/07 07:39:08;;;;;;;0.60;0.60;;;11.40;1.00;;;;;;5052500;28;20279;-75
2022/04/07 07:41:35;;;;;;;0.60;0.60;;;11.40;1.00;;;;;;5052733;28;20202;-75
2022/04/07 07:44:01;;;;;;;0.50;0.50;;;11.40;1.00;;;;;;5052787;28;20551;-75
2022/04/07 07:46:29;;;;;;;0.60;0.60;;;11.40;1.00;;;;;;5052565;28;20191;-74
2022/04/07 07:48:54;;;;;;;0.60;0.60;;;11.80;1.00;;;;;;5053585;28;20530;-75
2022/04/07 07:51:20;;;;;;;0.50;0.50;;;11.80;99.90;;;;;;5063477;28;20202;-74
2022/04/07 07:53:45;;;;;;;0.60;0.60;;;11.90;99.90;;;;;;5064052;28;20211;-75
2022/04/07 07:56:11;;;;;;;0.60;0.60;;;11.70;99.90;;;;;;5055578;28;20215;-74
2022/04/07 07:58:37;;;;;;;0.50;0.50;;;11.70;1.00;;;;;;5055069;28;20179;-74
2022/04/07 08:01:02;;;;;;;0.60;0.60;;;11.60;1.00;;;;;;5055214;28;20249;-74
2022/04/07 08:03:28;;;;;;;0.63;0.63;;;11.70;1.00;;;;;;5055293;28;20178;-76
2022/04/07 08:05:53;;;;;;;0.63;0.63;;;11.60;1.00;;;;;;5074975;28;20239;-75
2022/04/07 08:08:19;;;;;;;0.60;0.60;;;11.50;1.00;;;;;;5073656;28;20174;-74
2022/04/07 08:10:45;;;;;;;0.60;0.60;;;11.50;1.00;;;;;;5072671;28;20205;-77
2022/04/07 08:13:10;;;;;;;0.60;0.60;;;11.50;1.00;;;;;;5076801;28;20171;-75
2022/04/07 08:15:36;;;;;;;0.60;0.60;;;11.50;1.00;;;;;;5075766;28;20226;-77
2022/04/07 08:18:02;;;;;;;0.70;0.70;;;11.50;1.00;;;;;;5076584;28;20213;-76
2022/04/07 08:20:27;;;;;;;0.60;0.60;;;11.50;1.00;;;;;;5066980;28;20244;-75
2022/04/07 08:22:53;;;;;;;0.70;0.70;;;11.60;1.00;;;;;;5064850;28;20620;-76
2022/04/07 08:25:19;;;;;;;0.67;0.67;;;11.90;99.90;;;;;;5062773;28;20178;-76
2022/04/07 08:27:45;;;;;;;0.70;0.70;;;12.00;99.90;;;;;;5052273;28;20210;-77
2022/04/07 08:30:11;;;;;;;0.60;0.60;;;12.00;99.90;;;;;;5052081;28;20203;-77
2022/04/07 08:32:37;;;;;;;0.50;0.50;;;11.90;99.90;;;;;;5052088;28;20237;-77
2022/04/07 08:35:03;;;;;;;0.67;0.67;;;12.10;99.90;;;;;;5052380;28;20698;-77
2022/04/07 08:37:29;;;;;;;0.60;0.60;;;12.20;99.90;;;;;;5052243;28;20237;-76
2022/04/07 08:39:54;;;;;;;0.50;0.50;;;12.30;99.90;;;;;;5051445;28;20195;-76
2022/04/07 08:42:23;;;;;;;0.50;0.50;;;12.40;99.90;;;;;;5050782;28;20197;-78
2022/04/07 08:44:48;;;;;;;0.50;0.50;;;12.30;99.90;;;;;;5051959;28;20273;-77
2022/04/07 08:47:20;;;;;;;0.50;0.50;;;12.10;99.90;;;;;;5052233;28;20335;-77
2022/04/07 08:49:48;;;;;;;0.60;0.60;;;12.10;99.90;;;;;;5050966;28;20194;-77
2022/04/07 08:52:14;;;;;;;0.50;0.50;;;12.10;99.90;;;;;;5052405;28;20167;-78
2022/04/07 08:54:40;;;;;;;0.50;0.50;;;12.10;99.90;;;;;;5051902;28;20179;-76
2022/04/07 08:57:05;;;;;;;0.50;0.50;;;12.40;99.90;;;;;;5051165;28;20222;-77
2022/04/07 08:59:31;;;;;;;0.50;0.50;;;12.70;99.90;;;;;;5051496;28;20167;-77
2022/04/07 09:02:02;;;;;;;0.50;0.50;;;12.70;57.10;;;;;;5052202;28;20242;-77
2022/04/07 09:04:30;;;;;;;0.60;0.60;;;12.90;1.00;;;;;;5051832;28;20257;-77
2022/04/07 09:06:57;;;;;;;0.40;0.40;;;13.00;1.00;;;;;;5053666;28;20175;-77
2022/04/07 09:09:22;;;;;;;0.53;0.53;;;13.10;34.30;;;;;;5052128;28;20779;-77
2022/04/07 09:11:55;;;;;;;0.60;0.60;;;13.10;1.00;;;;;;5052274;28;20282;-77
2022/04/07 09:14:21;;;;;;;0.50;0.50;;;13.00;48.30;;;;;;5052465;28;20191;-78
2022/04/07 09:16:52;;;;;;;0.50;0.50;;;12.90;76.00;;;;;;5051634;28;20219;-77
2022/04/07 09:19:21;;;;;;;0.50;0.50;;;12.80;42.60;;;;;;5050939;28;20328;-77
2022/04/07 09:21:47;;;;;;;0.50;0.50;;;12.80;59.70;;;;;;5051361;28;20214;-77
2022/04/07 09:24:12;;;;;;;0.60;0.60;;;12.90;99.90;;;;;;5051510;28;20171;-76
2022/04/07 09:26:43;;;;;;;0.50;0.50;;;12.90;99.90;;;;;;5051944;28;20229;-77
2022/04/07 09:29:13;;;;;;;0.50;0.50;;;12.80;91.30;;;;;;5051344;28;20187;-77
2022/04/07 09:31:40;;;;;;;0.50;0.50;;;12.80;82.00;;;;;;5051730;28;20284;-77
2022/04/07 09:34:06;;;;;;;0.60;0.60;;;12.70;99.90;;;;;;5051703;28;20564;-77
2022/04/07 09:36:32;;;;;;;0.40;0.40;;;12.70;99.90;;;;;;5051320;28;20218;-76
2022/04/07 09:39:04;;;;;;;0.60;0.60;;;12.80;99.90;;;;;;5050902;28;20254;-76
2022/04/07 09:41:31;;;;;;;0.53;0.53;;;12.80;99.90;;;;;;5051503;28;20225;-76
2022/04/07 09:43:59;;;;;;;0.40;0.40;;;12.80;21.00;;;;;;5050910;28;20183;-76
2022/04/07 09:46:35;;;;;;;0.50;0.50;;;12.70;2.70;;;;;;5051427;28;20191;-76
2022/04/07 09:49:09;;;;;;;0.50;0.50;;;12.70;99.90;;;;;;5052098;28;20201;-78
2022/04/07 09:51:40;;;;;;;0.50;0.50;;;12.80;99.90;;;;;;5055910;28;20195;-75
2022/04/07 09:54:09;;;;;;;0.50;0.50;;;12.70;99.90;;;;;;5057777;28;20191;-77
2022/04/07 09:56:35;;;;;;;0.60;0.60;;;12.80;56.70;;;;;;5057877;28;20237;-75
2022/04/07 09:59:02;;;;;;;0.60;0.60;;;12.80;1.00;;;;;;5054508;28;20175;-74
2022/04/07 10:01:29;;;;;;;0.50;0.50;;;13.10;1.00;;;;;;5054567;28;20672;-75
2022/04/07 10:03:55;;;;;;;0.50;0.50;;;13.20;1.00;;;;;;5054817;28;20632;-75
2022/04/07 10:06:22;;;;;;;0.50;0.50;;;13.40;1.00;;;;;;5054633;28;20202;-76
2022/04/07 10:08:49;;;;;;;0.50;0.50;;;13.80;1.00;;;;;;5054080;28;20198;-76
2022/04/07 10:11:19;;;;;;;0.50;0.50;;;13.60;1.00;;;;;;5055078;28;20292;-75
2022/04/07 10:13:45;;;;;;;0.50;0.50;;;13.80;1.00;;;;;;5055116;28;20195;-76
2022/04/07 10:16:15;;;;;;;0.60;0.60;;;13.60;1.00;;;;;;5054283;28;20207;-79
2022/04/07 10:18:55;;;;;;;0.50;0.50;;;13.70;1.00;;;;;;5054568;28;20186;-77
2022/04/07 10:21:48;;;;;;;0.50;0.50;;;13.70;1.00;;;;;;5053610;28;20667;-76
2022/04/07 10:24:20;;;;;;;0.50;0.50;;;13.40;1.00;;;;;;5054455;28;20695;-77
2022/04/07 10:26:47;;;;;;;0.50;0.50;;;13.30;1.00;;;;;;5054451;28;20201;-77
2022/04/07 10:29:23;;;;;;;0.50;0.50;;;13.20;1.00;;;;;;5053835;28;20806;-77
2022/04/07 10:32:10;;;;;;;0.50;0.50;;;13.30;1.00;;;;;;5053933;28;20278;-75
2022/04/07 10:34:37;;;;;;;0.47;0.47;;;13.30;1.00;;;;;;5054292;28;20183;-75
2022/04/07 10:37:06;;;;;;;0.50;0.50;;;13.50;1.00;;;;;;5053828;28;20215;-74
2022/04/07 10:39:35;;;;;;;0.50;0.50;;;13.40;1.00;;;;;;5053758;28;20257;-75
2022/04/07 10:42:01;;;;;;;0.57;0.57;;;13.30;1.00;;;;;;5053939;28;20179;-76
2022/04/07 10:44:27;;;;;;;0.60;0.60;;;13.30;1.00;;;;;;5053048;28;20889;-75
2022/04/07 10:47:08;;;;;;;0.60;0.60;;;13.40;1.00;;;;;;5053811;28;20171;-75
2022/04/07 10:49:34;;;;;;;0.50;0.50;;;13.50;1.00;;;;;;5053611;28;20190;-76
2022/04/07 10:52:04;;;;;;;0.40;0.40;;;13.40;1.00;;;;;;5053711;28;20205;-75
2022/04/07 10:54:30;;;;;;;0.50;0.50;;;13.60;1.00;;;;;;5054062;28;20182;-75
2022/04/07 10:56:59;;;;;;;0.50;0.50;;;13.70;1.00;;;;;;5045631;28;20697;-75
2022/04/07 10:59:26;;;;;;;0.60;0.60;;;14.00;1.00;;;;;;5047780;28;20310;-77
2022/04/07 11:01:59;;;;;;;0.50;0.50;;;14.00;1.00;;;;;;5049393;28;20210;-75
2022/04/07 11:04:25;;;;;;;0.50;0.50;;;14.10;1.00;;;;;;5034730;28;20184;-78
2022/04/07 11:07:09;;;;;;;0.50;0.50;;;14.20;1.00;;;;;;5053030;28;20186;-74
2022/04/07 11:09:49;;;;;;;0.50;0.50;;;14.30;1.00;;;;;;5052770;28;20186;-75
2022/04/07 11:12:29;;;;;;;0.50;0.50;;;14.50;1.00;;;;;;5053426;28;20179;-74
2022/04/07 11:15:01;;;;;;;0.50;0.50;;;14.90;1.00;;;;;;5052013;28;20206;-75
2022/04/07 11:17:43;;;;;;;0.40;0.40;;;15.70;1.00;;;;;;5052527;28;20301;-76
2022/04/07 11:20:09;;;;;;;0.43;0.43;;;15.40;1.00;;;;;;5052496;28;20191;-74
2022/04/07 11:23:08;;;;;;;0.50;0.50;;;14.90;1.00;;;;;;5052482;28;20172;-77
2022/04/07 11:25:42;;;;;;;0.40;0.40;;;15.10;1.00;;;;;;5040989;28;20179;-77
2022/04/07 11:28:09;;;;;;;0.47;0.47;;;14.70;1.00;;;;;;5050855;28;20628;-76
2022/04/07 11:30:41;;;;;;;0.50;0.50;;;14.80;1.00;;;;;;5051812;28;20191;-75
2022/04/07 11:33:18;;;;;;;0.50;0.50;;;15.10;1.00;;;;;;5052607;28;20664;-76
2022/04/07 11:35:59;;;;;;;0.40;0.40;;;14.90;1.00;;;;;;5052837;28;20276;-77
2022/04/07 11:38:35;;;;;;;0.57;0.57;;;14.70;1.00;;;;;;5052757;28;20233;-76
2022/04/07 11:41:09;;;;;;;0.50;0.50;;;15.30;1.00;;;;;;5052362;28;20660;-74
2022/04/07 11:43:38;;;;;;;0.40;0.40;;;15.40;1.00;;;;;;5052716;28;20171;-76
2022/04/07 11:46:04;;;;;;;0.40;0.40;;;15.20;1.00;;;;;;5052315;28;20277;-76
2022/04/07 11:48:31;;;;;;;0.40;0.40;;;15.00;1.00;;;;;;5051571;28;20241;-74
2022/04/07 11:51:00;;;;;;;0.50;0.50;;;15.00;1.00;;;;;;5051238;28;20195;-76
2022/04/07 11:53:29;;;;;;;0.50;0.50;;;15.20;1.00;;;;;;5052598;28;20179;-76
2022/04/07 11:55:55;;;;;;;0.40;0.40;;;14.90;1.00;;;;;;5052600;28;20207;-76
2022/04/07 11:58:20;;;;;;;0.50;0.50;;;14.70;1.00;;;;;;5052648;28;20194;-75
2022/04/07 12:00:46;;;;;;;0.60;0.60;;;14.50;1.00;;;;;;5052346;28;20244;-76
2022/04/07 12:03:12;;;;;;;0.50;0.50;;;14.40;1.00;;;;;;5052574;28;20265;-76
2022/04/07 12:05:40;;;;;;;0.50;0.50;;;14.40;1.00;;;;;;5052328;28;20175;-76
2022/04/07 12:08:16;;;;;;;0.40;0.40;;;14.70;1.00;;;;;;5052522;28;20187;-77
2022/04/07 12:10:44;;;;;;;0.50;0.50;;;14.80;1.00;;;;;;5052309;28;20202;-75
2022/04/07 12:13:10;;;;;;;0.50;0.50;;;14.50;1.00;;;;;;5052598;28;20336;-75
2022/04/07 12:15:37;;;;;;;0.50;0.50;;;14.30;1.00;;;;;;5052372;28;20603;-76
2022/04/07 12:18:07;;;;;;;0.50;0.50;;;14.20;1.00;;;;;;5051931;28;20632;-75
2022/04/07 12:20:34;;;;;;;0.50;0.50;;;14.00;1.00;;;;;;5053591;28;20687;-76
2022/04/07 12:23:10;;;;;;;0.60;0.60;;;13.70;1.00;;;;;;5055086;28;20182;-75
2022/04/07 12:25:37;;;;;;;0.50;0.50;;;13.60;1.00;;;;;;5052935;28;20175;-76
2022/04/07 12:28:16;;;;;;;0.50;0.50;;;13.60;1.00;;;;;;5052102;28;20589;-76
2022/04/07 12:30:46;;;;;;;0.50;0.50;;;13.70;1.00;;;;;;5051017;28;20194;-75
2022/04/07 12:33:36;;;;;;;0.40;0.40;;;14.00;1.00;;;;;;5051724;28;20167;-75
2022/04/07 12:36:02;;;;;;;0.50;0.50;;;13.60;1.00;;;;;;5051896;28;20257;-76
2022/04/07 12:38:27;;;;;;;0.50;0.50;;;13.70;7.50;;;;;;5051811;28;20171;-75
2022/04/07 12:40:53;;;;;;;0.50;0.50;;;13.70;1.00;;;;;;5051087;28;20194;-76
2022/04/07 12:43:18;;;;;;;0.47;0.47;;;13.50;99.90;;;;;;5051226;28;20184;-77
2022/04/07 12:45:59;;;;;;;0.40;0.40;;;13.50;99.90;;;;;;5051400;28;20206;-75
2022/04/07 12:48:24;;;;;;;0.50;0.50;;;13.40;99.90;;;;;;5051318;28;20365;-76
2022/04/07 12:50:50;;;;;;;0.50;0.50;;;13.40;84.80;;;;;;5050879;28;20855;-76
2022/04/07 12:53:34;;;;;;;0.50;0.50;;;13.30;38.90;;;;;;5051249;28;20210;-76
2022/04/07 12:56:16;;;;;;;0.50;0.50;;;13.30;88.50;;;;;;5051803;28;20285;-76
2022/04/07 12:58:42;;;;;;;0.50;0.50;;;13.30;99.90;;;;;;5051156;28;20185;-74
2022/04/07 13:01:08;;;;;;;0.40;0.40;;;13.50;99.90;;;;;;5050698;28;20195;-75